Time,TemperatureF,DewpointF,PressureIn,WindDirection,WindDirectionDegrees,WindSpeedMPH,WindSpeedGustMPH,Humidity,HourlyPrecipIn,Conditions,Clouds,dailyrainin,SoftwareType,DateUTC
2013-02-14 00:00:00,35.8,31.1,29.68,NW,304,0.0,2.0,83,0.00,,SKC,0.00,VWS V14.01,2013-02-14 05:00:00,
2013-02-14 00:01:00,35.8,31.1,29.67,NW,304,0.0,2.0,83,0.00,,SKC,0.00,VWS V14.01,2013-02-14 05:01:00,
2013-02-14 00:02:00,35.6,31.0,29.67,NW,304,0.0,0.0,83,0.00,,SKC,0.00,VWS V14.01,2013-02-14 05:02:00,
2013-02-14 00:07:00,35.5,30.9,29.68,NW,304,0.0,1.0,83,0.00,,SKC,0.00,VWS V14.01,2013-02-14 05:07:00,
2013-02-14 00:10:00,35.3,31.0,29.68,NW,304,0.0,1.0,84,0.00,,SKC,0.00,VWS V14.01,2013-02-14 05:10:00,
2013-02-14 00:12:00,35.2,30.9,29.68,NW,304,0.0,0.0,84,0.00,,SKC,0.00,VWS V14.01,2013-02-14 05:12:00,
2013-02-14 00:17:00,35.0,30.7,29.68,WNW,303,0.0,1.0,84,0.00,,SKC,0.00,VWS V14.01,2013-02-14 05:17:00,
2013-02-14 00:20:00,34.9,30.9,29.68,WNW,303,0.0,1.0,85,0.00,,SKC,0.00,VWS V14.01,2013-02-14 05:20:00,
2013-02-14 00:22:00,34.7,30.7,29.68,WNW,303,0.0,0.0,85,0.00,,SKC,0.00,VWS V14.01,2013-02-14 05:22:00,
2013-02-14 00:27:00,34.6,30.9,29.68,NW,304,0.0,1.0,86,0.00,,SKC,0.00,VWS V14.01,2013-02-14 05:27:00,
2013-02-14 00:30:00,34.4,30.6,29.68,NW,304,0.0,1.0,86,0.00,,SKC,0.00,VWS V14.01,2013-02-14 05:30:00,
2013-02-14 00:33:00,34.4,30.6,29.68,NW,304,0.0,0.0,86,0.00,,SKC,0.00,VWS V14.01,2013-02-14 05:33:00,
2013-02-14 00:38:00,34.3,30.8,29.68,NW,304,0.0,1.0,87,0.00,,SKC,0.00,VWS V14.01,2013-02-14 05:38:00,
2013-02-14 00:40:00,34.1,30.6,29.68,NW,304,0.0,1.0,87,0.00,,SKC,0.00,VWS V14.01,2013-02-14 05:40:00,
2013-02-14 00:43:00,34.1,30.9,29.68,NW,304,0.0,1.0,88,0.00,,SKC,0.00,VWS V14.01,2013-02-14 05:43:00,
2013-02-14 00:50:00,34.0,31.1,29.68,NW,315,0.0,2.0,89,0.00,,SKC,0.00,VWS V14.01,2013-02-14 05:50:00,
2013-02-14 01:00:00,33.7,31.1,29.67,NW,315,0.0,2.0,90,0.00,,SKC,0.00,VWS V14.01,2013-02-14 06:00:00,
2013-02-14 01:10:00,33.5,30.9,29.68,NW,315,0.0,2.0,90,0.00,,SKC,0.00,VWS V14.01,2013-02-14 06:10:00,
2013-02-14 01:20:00,33.5,31.2,29.68,NW,315,0.0,2.0,91,0.00,,SKC,0.00,VWS V14.01,2013-02-14 06:20:00,
2013-02-14 01:30:00,33.4,31.3,29.68,NW,315,0.0,1.0,92,0.00,,SKC,0.00,VWS V14.01,2013-02-14 06:30:00,
2013-02-14 01:40:00,33.4,31.3,29.68,NNW,338,0.0,2.0,92,0.00,,SKC,0.00,VWS V14.01,2013-02-14 06:40:00,
2013-02-14 01:50:00,33.4,31.6,29.67,NNW,338,0.0,1.0,93,0.00,,SKC,0.00,VWS V14.01,2013-02-14 06:50:00,
2013-02-14 02:00:00,33.4,31.6,29.68,NNW,338,0.0,1.0,93,0.00,,SKC,0.00,VWS V14.01,2013-02-14 07:00:00,
2013-02-14 02:10:00,33.4,31.9,29.68,NNW,338,0.0,2.0,94,0.00,,SKC,0.00,VWS V14.01,2013-02-14 07:10:00,
2013-02-14 02:20:00,33.4,31.9,29.68,NNW,338,0.0,0.0,94,0.00,,SKC,0.00,VWS V14.01,2013-02-14 07:20:00,
2013-02-14 02:30:00,33.4,32.1,29.68,NNW,338,0.0,0.0,95,0.00,,SKC,0.00,VWS V14.01,2013-02-14 07:30:00,
2013-02-14 02:40:00,33.4,32.1,29.68,NE,45,0.0,1.0,95,0.00,,SKC,0.00,VWS V14.01,2013-02-14 07:40:00,
2013-02-14 02:50:00,33.2,31.9,29.68,ENE,68,0.0,1.0,95,0.00,,SKC,0.00,VWS V14.01,2013-02-14 07:50:00,
2013-02-14 03:00:00,33.2,32.2,29.67,ENE,68,0.0,1.0,96,0.00,,SKC,0.00,VWS V14.01,2013-02-14 08:00:00,
2013-02-14 03:10:00,33.2,32.2,29.68,ENE,68,0.0,1.0,96,0.00,,SKC,0.00,VWS V14.01,2013-02-14 08:10:00,
2013-02-14 03:20:00,33.2,32.2,29.68,ENE,68,0.0,2.0,96,0.00,,SKC,0.00,VWS V14.01,2013-02-14 08:20:00,
2013-02-14 03:30:00,33.2,32.2,29.68,ENE,68,0.0,2.0,96,0.00,,SKC,0.00,VWS V14.01,2013-02-14 08:30:00,
2013-02-14 03:40:00,33.2,32.2,29.70,ENE,68,0.0,3.0,96,0.00,,SKC,0.00,VWS V14.01,2013-02-14 08:40:00,
2013-02-14 03:50:00,33.1,32.1,29.71,ESE,112,0.0,4.0,96,0.00,,SKC,0.00,VWS V14.01,2013-02-14 08:50:00,
2013-02-14 04:00:00,32.9,32.1,29.71,ESE,112,0.0,2.0,97,0.00,,SKC,0.00,VWS V14.01,2013-02-14 09:00:00,
2013-02-14 04:10:00,32.7,31.9,29.72,ESE,112,0.0,2.0,97,0.00,,SKC,0.00,VWS V14.01,2013-02-14 09:10:00,
2013-02-14 04:20:00,32.5,31.7,29.73,ESE,112,0.0,2.0,97,0.00,,SKC,0.00,VWS V14.01,2013-02-14 09:20:00,
2013-02-14 04:30:00,32.4,31.6,29.73,SE,135,0.0,2.0,97,0.00,,SKC,0.00,VWS V14.01,2013-02-14 09:30:00,
2013-02-14 04:40:00,32.4,31.6,29.75,SE,135,0.0,2.0,97,0.00,,SKC,0.00,VWS V14.01,2013-02-14 09:40:00,
2013-02-14 04:50:00,32.4,31.6,29.74,SE,135,0.0,2.0,97,0.00,,SKC,0.00,VWS V14.01,2013-02-14 09:50:00,
2013-02-14 05:00:00,32.4,31.6,29.74,SE,135,0.0,2.0,97,0.00,,SKC,0.00,VWS V14.01,2013-02-14 10:00:00,
2013-02-14 05:10:00,32.2,31.5,29.75,SE,135,0.0,1.0,97,0.00,,SKC,0.00,VWS V14.01,2013-02-14 10:10:00,
2013-02-14 05:20:00,32.1,31.4,29.75,SE,135,0.0,2.0,97,0.00,,SKC,0.00,VWS V14.01,2013-02-14 10:20:00,
2013-02-14 05:30:00,31.9,31.1,29.75,SE,135,0.0,1.0,97,0.00,,SKC,0.00,VWS V14.01,2013-02-14 10:30:00,
2013-02-14 05:40:00,31.8,31.0,29.75,South,180,0.0,3.0,97,0.00,,SKC,0.00,VWS V14.01,2013-02-14 10:40:00,
2013-02-14 05:50:00,31.6,30.9,29.76,South,180,0.0,2.0,97,0.00,,SKC,0.00,VWS V14.01,2013-02-14 10:50:00,
2013-02-14 06:00:00,31.5,31.0,29.76,South,180,0.0,2.0,98,0.00,,SKC,0.00,VWS V14.01,2013-02-14 11:00:00,
2013-02-14 06:10:00,31.3,30.8,29.77,South,180,0.0,1.0,98,0.00,,SKC,0.00,VWS V14.01,2013-02-14 11:10:00,
2013-02-14 06:20:00,31.3,30.8,29.78,SSE,158,0.0,2.0,98,0.00,,SKC,0.00,VWS V14.01,2013-02-14 11:20:00,
2013-02-14 06:30:00,31.2,30.7,29.79,SSE,158,0.0,2.0,98,0.00,,SKC,0.00,VWS V14.01,2013-02-14 11:30:00,
2013-02-14 06:40:00,31.0,30.5,29.79,South,180,0.0,2.0,98,0.00,,SKC,0.00,VWS V14.01,2013-02-14 11:40:00,
2013-02-14 06:50:00,31.0,30.5,29.79,South,180,0.0,1.0,98,0.00,,SKC,0.00,VWS V14.01,2013-02-14 11:50:00,
2013-02-14 07:00:00,30.9,30.4,29.80,South,180,0.0,2.0,98,0.00,,SKC,0.00,VWS V14.01,2013-02-14 12:00:00,
2013-02-14 07:10:00,30.9,30.4,29.81,South,180,0.0,1.0,98,0.00,,SKC,0.00,VWS V14.01,2013-02-14 12:10:00,
2013-02-14 07:20:00,31.0,30.5,29.82,South,180,0.0,2.0,98,0.00,,SKC,0.00,VWS V14.01,2013-02-14 12:20:00,
2013-02-14 07:30:00,31.2,30.7,29.82,South,180,0.0,2.0,98,0.00,,SKC,0.00,VWS V14.01,2013-02-14 12:30:00,
2013-02-14 07:40:00,31.3,30.8,29.84,South,180,0.0,3.0,98,0.00,,SKC,0.00,VWS V14.01,2013-02-14 12:40:00,
2013-02-14 07:50:00,31.6,31.1,29.84,SW,225,0.0,2.0,98,0.00,,SKC,0.00,VWS V14.01,2013-02-14 12:50:00,
2013-02-14 08:00:00,31.8,31.3,29.85,SW,225,0.0,2.0,98,0.00,,SKC,0.00,VWS V14.01,2013-02-14 13:00:00,
2013-02-14 08:10:00,32.1,31.6,29.85,West,270,0.0,3.0,98,0.00,,SKC,0.00,VWS V14.01,2013-02-14 13:10:00,
2013-02-14 08:20:00,32.2,31.7,29.85,WSW,248,0.0,3.0,98,0.00,,SKC,0.00,VWS V14.01,2013-02-14 13:20:00,
2013-02-14 08:30:00,32.4,31.9,29.86,West,270,0.0,3.0,98,0.00,,SKC,0.00,VWS V14.01,2013-02-14 13:30:00,
2013-02-14 08:40:00,32.5,32.0,29.86,West,270,0.0,2.0,98,0.00,,SKC,0.00,VWS V14.01,2013-02-14 13:40:00,
2013-02-14 08:50:00,32.8,32.3,29.87,West,270,0.0,2.0,98,0.00,,SKC,0.00,VWS V14.01,2013-02-14 13:50:00,
2013-02-14 09:00:00,32.9,32.4,29.87,South,180,0.0,3.0,98,0.00,,SKC,0.00,VWS V14.01,2013-02-14 14:00:00,
2013-02-14 09:10:00,33.2,32.7,29.88,SW,225,0.0,3.0,98,0.00,,SKC,0.00,VWS V14.01,2013-02-14 14:10:00,
2013-02-14 09:20:00,33.4,32.9,29.88,SW,225,0.0,3.0,98,0.00,,SKC,0.00,VWS V14.01,2013-02-14 14:20:00,
2013-02-14 09:30:00,33.7,33.2,29.88,WSW,248,0.0,2.0,98,0.00,,SKC,0.00,VWS V14.01,2013-02-14 14:30:00,
2013-02-14 09:40:00,33.8,33.3,29.88,SW,225,0.0,2.0,98,0.00,,SKC,0.00,VWS V14.01,2013-02-14 14:40:00,
2013-02-14 09:50:00,34.1,33.3,29.89,SW,225,1.0,4.0,97,0.00,,SKC,0.00,VWS V14.01,2013-02-14 14:50:00,
2013-02-14 10:00:00,34.4,33.6,29.89,SSW,202,1.0,4.0,97,0.00,,SKC,0.00,VWS V14.01,2013-02-14 15:00:00,
2013-02-14 10:10:00,34.9,34.1,29.89,SSW,202,0.0,2.0,97,0.00,,SKC,0.00,VWS V14.01,2013-02-14 15:10:00,
2013-02-14 10:25:00,35.2,33.9,29.90,SE,140,0.0,0.0,95,0.00,,SKC,0.00,VWS V14.01,2013-02-14 15:25:00,
2013-02-14 10:30:00,35.3,34.0,29.90,SE,140,0.0,2.0,95,0.00,,SKC,0.00,VWS V14.01,2013-02-14 15:30:00,
2013-02-14 10:35:00,35.5,34.2,29.90,SE,140,0.0,2.0,95,0.00,,SKC,0.00,VWS V14.01,2013-02-14 15:35:00,
2013-02-14 10:40:00,35.6,34.0,29.90,SE,140,0.0,2.0,94,0.00,,SKC,0.00,VWS V14.01,2013-02-14 15:40:00,
2013-02-14 10:45:00,35.8,34.2,29.90,SE,144,1.0,2.0,94,0.00,,SKC,0.00,VWS V14.01,2013-02-14 15:45:00,
2013-02-14 10:50:00,35.9,34.1,29.91,SE,144,0.0,4.0,93,0.00,,SKC,0.00,VWS V14.01,2013-02-14 15:50:00,
2013-02-14 10:55:00,36.0,34.2,29.91,SE,144,0.0,2.0,93,0.00,,SKC,0.00,VWS V14.01,2013-02-14 15:55:00,
2013-02-14 11:00:00,36.3,34.2,29.91,SE,144,0.0,2.0,92,0.00,,SKC,0.00,VWS V14.01,2013-02-14 16:00:00,
2013-02-14 11:01:00,36.3,34.2,29.91,SE,144,1.0,2.0,92,0.00,,SKC,0.00,VWS V14.01,2013-02-14 16:01:00,
2013-02-14 11:06:00,36.5,34.4,29.91,SSE,147,0.0,4.0,92,0.00,,SKC,0.00,VWS V14.01,2013-02-14 16:06:00,
2013-02-14 11:10:00,36.8,34.4,29.91,South,169,0.0,4.0,91,0.00,,SKC,0.00,VWS V14.01,2013-02-14 16:10:00,
2013-02-14 11:11:00,36.8,34.4,29.91,South,169,0.0,4.0,91,0.00,,SKC,0.00,VWS V14.01,2013-02-14 16:11:00,
2013-02-14 11:16:00,36.9,34.2,29.91,South,169,0.0,2.0,90,0.00,,SKC,0.00,VWS V14.01,2013-02-14 16:16:00,
2013-02-14 11:20:00,37.2,34.5,29.91,South,169,0.0,2.0,90,0.00,,SKC,0.00,VWS V14.01,2013-02-14 16:20:00,
2013-02-14 11:21:00,37.2,34.5,29.91,South,169,1.0,2.0,90,0.00,,SKC,0.00,VWS V14.01,2013-02-14 16:21:00,
2013-02-14 11:26:00,37.3,34.4,29.91,South,185,0.0,4.0,89,0.00,,SKC,0.00,VWS V14.01,2013-02-14 16:26:00,
2013-02-14 11:30:00,37.5,34.3,29.91,South,186,0.0,4.0,88,0.00,,SKC,0.00,VWS V14.01,2013-02-14 16:30:00,
2013-02-14 11:31:00,37.5,34.3,29.91,South,186,0.0,4.0,88,0.00,,SKC,0.00,VWS V14.01,2013-02-14 16:31:00,
2013-02-14 11:36:00,37.6,34.1,29.92,South,186,0.0,2.0,87,0.00,,SKC,0.00,VWS V14.01,2013-02-14 16:36:00,
2013-02-14 11:40:00,37.9,33.8,29.91,South,186,0.0,3.0,85,0.00,,SKC,0.00,VWS V14.01,2013-02-14 16:40:00,
2013-02-14 11:41:00,37.9,33.8,29.91,South,186,0.0,0.0,85,0.00,,SKC,0.00,VWS V14.01,2013-02-14 16:41:00,
2013-02-14 11:46:00,37.9,33.5,29.91,West,261,0.0,5.0,84,0.00,,SKC,0.00,VWS V14.01,2013-02-14 16:46:00,
2013-02-14 11:50:00,38.2,33.5,29.91,West,261,1.0,5.0,83,0.00,,SKC,0.00,VWS V14.01,2013-02-14 16:50:00,
2013-02-14 11:52:00,38.2,33.5,29.91,West,261,1.0,1.0,83,0.00,,SKC,0.00,VWS V14.01,2013-02-14 16:52:00,
2013-02-14 11:57:00,38.3,33.3,29.91,West,261,0.0,3.0,82,0.01,,SKC,0.01,VWS V14.01,2013-02-14 16:57:00,
2013-02-14 12:00:00,38.3,32.7,29.91,West,261,0.0,3.0,80,0.01,,SKC,0.01,VWS V14.01,2013-02-14 17:00:00,
2013-02-14 12:02:00,38.3,32.7,29.91,West,261,0.0,2.0,80,0.01,,SKC,0.01,VWS V14.01,2013-02-14 17:02:00,
2013-02-14 12:07:00,38.5,32.6,29.91,West,261,0.0,2.0,79,0.01,,SKC,0.01,VWS V14.01,2013-02-14 17:07:00,
2013-02-14 12:10:00,38.5,31.6,29.91,West,261,0.0,3.0,76,0.01,,SKC,0.01,VWS V14.01,2013-02-14 17:10:00,
2013-02-14 12:12:00,38.6,31.7,29.90,West,261,0.0,0.0,76,0.01,,SKC,0.01,VWS V14.01,2013-02-14 17:12:00,
2013-02-14 12:17:00,39.8,29.4,29.90,West,261,0.0,2.0,66,0.01,,SKC,0.01,VWS V14.01,2013-02-14 17:17:00,
2013-02-14 12:20:00,40.3,27.1,29.91,West,261,0.0,2.0,59,0.02,,SKC,0.02,VWS V14.01,2013-02-14 17:20:00,
2013-02-14 12:22:00,40.3,27.1,29.90,West,261,0.0,0.0,59,0.02,,SKC,0.02,VWS V14.01,2013-02-14 17:22:00,
2013-02-14 12:27:00,41.2,26.7,29.90,West,263,0.0,3.0,56,0.02,,SKC,0.02,VWS V14.01,2013-02-14 17:27:00,
2013-02-14 12:30:00,41.5,26.1,29.90,West,263,0.0,3.0,54,0.02,,SKC,0.02,VWS V14.01,2013-02-14 17:30:00,
2013-02-14 12:32:00,41.5,25.2,29.90,West,263,0.0,1.0,52,0.03,,SKC,0.03,VWS V14.01,2013-02-14 17:32:00,
2013-02-14 12:37:00,41.8,27.7,29.90,West,263,0.0,3.0,57,0.03,,SKC,0.03,VWS V14.01,2013-02-14 17:37:00,
2013-02-14 12:40:00,41.5,26.5,29.90,West,263,0.0,3.0,55,0.04,,SKC,0.04,VWS V14.01,2013-02-14 17:40:00,
2013-02-14 12:42:00,41.5,28.3,29.90,West,263,0.0,1.0,59,0.04,,SKC,0.04,VWS V14.01,2013-02-14 17:42:00,
2013-02-14 12:47:00,41.5,32.1,29.90,West,263,0.0,2.0,69,0.05,,SKC,0.05,VWS V14.01,2013-02-14 17:47:00,
2013-02-14 12:50:00,41.6,30.3,29.90,West,263,4.0,4.0,64,0.06,,SKC,0.06,VWS V14.01,2013-02-14 17:50:00,
2013-02-14 12:52:00,41.8,29.0,29.90,West,281,0.0,7.0,60,0.06,,SKC,0.06,VWS V14.01,2013-02-14 17:52:00,
2013-02-14 12:58:00,42.2,26.3,29.90,WNW,284,1.0,7.0,53,0.06,,SKC,0.06,VWS V14.01,2013-02-14 17:58:00,
2013-02-14 13:00:00,42.2,26.3,29.90,WNW,284,0.0,7.0,53,0.07,,SKC,0.07,VWS V14.01,2013-02-14 18:00:00,
2013-02-14 13:03:00,42.3,28.2,29.90,WNW,284,0.0,0.0,57,0.06,,SKC,0.07,VWS V14.01,2013-02-14 18:03:00,
2013-02-14 13:08:00,42.2,30.1,29.90,West,267,1.0,7.0,62,0.07,,SKC,0.08,VWS V14.01,2013-02-14 18:08:00,
2013-02-14 13:10:00,42.3,32.1,29.90,West,267,0.0,7.0,67,0.08,,SKC,0.09,VWS V14.01,2013-02-14 18:10:00,
2013-02-14 13:13:00,42.6,32.8,29.90,West,267,2.0,2.0,68,0.09,,SKC,0.10,VWS V14.01,2013-02-14 18:13:00,
2013-02-14 13:18:00,42.3,32.5,29.90,West,267,0.0,3.0,68,0.10,,SKC,0.11,VWS V14.01,2013-02-14 18:18:00,
2013-02-14 13:20:00,41.9,32.8,29.90,West,267,0.0,3.0,70,0.10,,SKC,0.11,VWS V14.01,2013-02-14 18:20:00,
2013-02-14 13:23:00,42.1,33.4,29.91,West,267,1.0,3.0,71,0.09,,SKC,0.11,VWS V14.01,2013-02-14 18:23:00,
2013-02-14 13:28:00,42.5,32.7,29.91,West,267,0.0,3.0,68,0.10,,SKC,0.12,VWS V14.01,2013-02-14 18:28:00,
2013-02-14 13:30:00,42.5,33.4,29.91,West,267,2.0,3.0,70,0.10,,SKC,0.12,VWS V14.01,2013-02-14 18:30:00,
2013-02-14 13:33:00,42.2,32.8,29.91,West,263,1.0,2.0,69,0.10,,SKC,0.12,VWS V14.01,2013-02-14 18:33:00,
2013-02-14 13:39:00,42.3,33.2,29.91,West,263,2.0,3.0,70,0.11,,SKC,0.13,VWS V14.01,2013-02-14 18:39:00,
2013-02-14 13:40:00,42.2,32.8,29.91,WNW,288,3.0,4.0,69,0.11,,SKC,0.13,VWS V14.01,2013-02-14 18:40:00,
2013-02-14 13:44:00,42.3,32.9,29.91,WNW,290,0.0,3.0,69,0.09,,SKC,0.13,VWS V14.01,2013-02-14 18:44:00,
2013-02-14 13:49:00,42.3,33.6,29.91,WNW,290,0.0,3.0,71,0.10,,SKC,0.14,VWS V14.01,2013-02-14 18:49:00,
2013-02-14 13:50:00,42.3,33.9,29.91,West,279,1.0,3.0,72,0.10,,SKC,0.14,VWS V14.01,2013-02-14 18:50:00,
2013-02-14 13:54:00,42.2,33.5,29.91,West,279,0.0,2.0,71,0.08,,SKC,0.14,VWS V14.01,2013-02-14 18:54:00,
2013-02-14 13:59:00,42.5,33.8,29.91,West,279,2.0,3.0,71,0.08,,SKC,0.14,VWS V14.01,2013-02-14 18:59:00,
2013-02-14 14:00:00,42.5,34.1,29.91,West,279,0.0,3.0,72,0.08,,SKC,0.14,VWS V14.01,2013-02-14 19:00:00,
2013-02-14 14:04:00,42.5,33.4,29.91,West,279,0.0,3.0,70,0.07,,SKC,0.14,VWS V14.01,2013-02-14 19:04:00,
2013-02-14 14:09:00,42.3,33.9,29.91,West,278,0.0,3.0,72,0.07,,SKC,0.14,VWS V14.01,2013-02-14 19:09:00,
2013-02-14 14:10:00,42.3,33.6,29.91,West,278,0.0,3.0,71,0.07,,SKC,0.14,VWS V14.01,2013-02-14 19:10:00,
2013-02-14 14:14:00,42.3,32.9,29.91,West,273,1.0,2.0,69,0.05,,SKC,0.14,VWS V14.01,2013-02-14 19:14:00,
2013-02-14 14:19:00,42.3,32.1,29.91,West,273,0.0,3.0,67,0.05,,SKC,0.14,VWS V14.01,2013-02-14 19:19:00,
2013-02-14 14:20:00,42.5,32.3,29.91,West,273,2.0,3.0,67,0.05,,SKC,0.14,VWS V14.01,2013-02-14 19:20:00,
2013-02-14 14:24:00,42.5,31.6,29.91,West,271,1.0,3.0,65,0.03,,SKC,0.14,VWS V14.01,2013-02-14 19:24:00,
2013-02-14 14:29:00,42.3,32.9,29.92,WSW,258,0.0,3.0,69,0.03,,SKC,0.14,VWS V14.01,2013-02-14 19:29:00,
2013-02-14 14:30:00,42.2,33.1,29.91,WSW,258,1.0,3.0,70,0.03,,SKC,0.14,VWS V14.01,2013-02-14 19:30:00,
2013-02-14 14:34:00,42.2,32.8,29.92,WSW,258,2.0,2.0,69,0.02,,SKC,0.14,VWS V14.01,2013-02-14 19:34:00,
2013-02-14 14:39:00,42.3,33.2,29.92,West,260,2.0,3.0,70,0.02,,SKC,0.14,VWS V14.01,2013-02-14 19:39:00,
2013-02-14 14:40:00,42.3,32.9,29.92,West,260,0.0,3.0,69,0.02,,SKC,0.14,VWS V14.01,2013-02-14 19:40:00,
2013-02-14 14:44:00,42.1,33.4,29.92,West,261,0.0,2.0,71,0.01,,SKC,0.14,VWS V14.01,2013-02-14 19:44:00,
2013-02-14 14:49:00,42.2,32.8,29.92,WSW,258,2.0,2.0,69,0.01,,SKC,0.14,VWS V14.01,2013-02-14 19:49:00,
2013-02-14 14:50:00,42.1,32.7,29.92,WSW,258,0.0,2.0,69,0.01,,SKC,0.14,VWS V14.01,2013-02-14 19:50:00,
2013-02-14 14:54:00,41.9,32.1,29.92,West,259,2.0,3.0,68,0.00,,SKC,0.14,VWS V14.01,2013-02-14 19:54:00,
2013-02-14 14:59:00,41.6,32.2,29.93,West,259,1.0,4.0,69,0.00,,SKC,0.14,VWS V14.01,2013-02-14 19:59:00,
2013-02-14 15:00:00,41.6,32.2,29.93,West,262,4.0,5.0,69,0.00,,SKC,0.14,VWS V14.01,2013-02-14 20:00:00,
2013-02-14 15:05:00,41.5,31.4,29.93,West,259,3.0,5.0,67,0.00,,SKC,0.14,VWS V14.01,2013-02-14 20:05:00,
2013-02-14 15:10:00,41.2,31.5,29.93,WNW,286,1.0,5.0,68,0.00,,SKC,0.14,VWS V14.01,2013-02-14 20:10:00,
2013-02-14 15:15:00,41.1,31.0,29.93,WNW,287,3.0,5.0,67,0.00,,SKC,0.14,VWS V14.01,2013-02-14 20:15:00,
2013-02-14 15:20:00,40.9,31.2,29.92,West,261,2.0,5.0,68,0.00,,SKC,0.14,VWS V14.01,2013-02-14 20:20:00,
2013-02-14 15:25:00,40.9,30.8,29.93,West,265,0.0,5.0,67,0.00,,SKC,0.14,VWS V14.01,2013-02-14 20:25:00,
2013-02-14 15:30:00,40.8,30.7,29.93,West,265,2.0,5.0,67,0.00,,SKC,0.14,VWS V14.01,2013-02-14 20:30:00,
2013-02-14 15:35:00,40.8,30.3,29.93,West,264,0.0,3.0,66,0.00,,SKC,0.14,VWS V14.01,2013-02-14 20:35:00,
2013-02-14 15:40:00,40.8,31.1,29.93,West,269,3.0,4.0,68,0.00,,SKC,0.14,VWS V14.01,2013-02-14 20:40:00,
2013-02-14 15:45:00,40.9,31.5,29.93,West,277,1.0,5.0,69,0.00,,SKC,0.14,VWS V14.01,2013-02-14 20:45:00,
2013-02-14 15:50:00,40.9,31.9,29.93,West,278,4.0,5.0,70,0.00,,SKC,0.14,VWS V14.01,2013-02-14 20:50:00,
2013-02-14 15:55:00,40.8,31.8,29.93,West,279,3.0,5.0,70,0.00,,SKC,0.14,VWS V14.01,2013-02-14 20:55:00,
2013-02-14 16:00:00,40.6,31.6,29.94,WNW,288,0.0,5.0,70,0.00,,SKC,0.14,VWS V14.01,2013-02-14 21:00:00,
2013-02-14 16:05:00,40.5,31.1,29.94,WNW,288,2.0,5.0,69,0.00,,SKC,0.14,VWS V14.01,2013-02-14 21:05:00,
2013-02-14 16:10:00,40.5,31.9,29.94,WNW,284,1.0,5.0,71,0.00,,SKC,0.14,VWS V14.01,2013-02-14 21:10:00,
2013-02-14 16:15:00,40.3,31.7,29.94,WNW,284,2.0,3.0,71,0.00,,SKC,0.14,VWS V14.01,2013-02-14 21:15:00,
2013-02-14 16:20:00,40.2,31.2,29.94,WNW,283,4.0,5.0,70,0.00,,SKC,0.14,VWS V14.01,2013-02-14 21:20:00,
2013-02-14 16:25:00,40.1,31.1,29.94,WNW,282,1.0,4.0,70,0.00,,SKC,0.14,VWS V14.01,2013-02-14 21:25:00,
2013-02-14 16:30:00,39.8,31.2,29.94,WNW,282,0.0,4.0,71,0.00,,SKC,0.14,VWS V14.01,2013-02-14 21:30:00,
2013-02-14 16:31:00,39.9,31.3,29.94,WNW,282,0.0,4.0,71,0.00,,SKC,0.14,VWS V14.01,2013-02-14 21:31:00,
2013-02-14 16:36:00,39.6,31.3,29.95,WNW,282,0.0,3.0,72,0.00,,SKC,0.14,VWS V14.01,2013-02-14 21:36:00,
2013-02-14 16:40:00,39.5,31.2,29.95,WNW,282,0.0,3.0,72,0.00,,SKC,0.14,VWS V14.01,2013-02-14 21:40:00,
2013-02-14 16:41:00,39.5,31.2,29.95,WNW,282,0.0,3.0,72,0.00,,SKC,0.14,VWS V14.01,2013-02-14 21:41:00,
2013-02-14 16:46:00,39.3,31.0,29.95,WNW,282,0.0,3.0,72,0.00,,SKC,0.14,VWS V14.01,2013-02-14 21:46:00,
2013-02-14 16:50:00,39.2,31.0,29.95,WNW,284,0.0,3.0,72,0.00,,SKC,0.14,VWS V14.01,2013-02-14 21:50:00,
2013-02-14 16:51:00,39.2,31.0,29.95,WNW,284,0.0,3.0,72,0.00,,SKC,0.14,VWS V14.01,2013-02-14 21:51:00,
2013-02-14 16:56:00,39.1,31.2,29.95,WNW,284,1.0,3.0,73,0.00,,SKC,0.14,VWS V14.01,2013-02-14 21:56:00,
2013-02-14 17:00:00,38.9,31.0,29.96,WNW,283,1.0,3.0,73,0.00,,SKC,0.14,VWS V14.01,2013-02-14 22:00:00,
2013-02-14 17:01:00,38.9,31.0,29.96,WNW,283,1.0,3.0,73,0.00,,SKC,0.14,VWS V14.01,2013-02-14 22:01:00,
2013-02-14 17:06:00,38.8,31.2,29.97,West,281,2.0,4.0,74,0.00,,SKC,0.14,VWS V14.01,2013-02-14 22:06:00,
2013-02-14 17:10:00,38.6,31.4,29.96,West,281,0.0,4.0,75,0.00,,SKC,0.14,VWS V14.01,2013-02-14 22:10:00,
2013-02-14 17:11:00,38.6,31.4,29.96,West,281,0.0,4.0,75,0.00,,SKC,0.14,VWS V14.01,2013-02-14 22:11:00,
2013-02-14 17:16:00,38.5,31.3,29.97,West,281,2.0,3.0,75,0.00,,SKC,0.14,VWS V14.01,2013-02-14 22:16:00,
2013-02-14 17:20:00,38.5,31.6,29.97,West,281,1.0,3.0,76,0.00,,SKC,0.14,VWS V14.01,2013-02-14 22:20:00,
2013-02-14 17:21:00,38.5,31.6,29.97,West,281,1.0,1.0,76,0.00,,SKC,0.14,VWS V14.01,2013-02-14 22:21:00,
2013-02-14 17:26:00,38.3,31.4,29.97,West,281,0.0,3.0,76,0.00,,SKC,0.14,VWS V14.01,2013-02-14 22:26:00,
2013-02-14 17:30:00,38.3,31.7,29.98,West,281,0.0,3.0,77,0.00,,SKC,0.14,VWS V14.01,2013-02-14 22:30:00,
2013-02-14 17:32:00,38.3,31.7,29.98,West,281,0.0,0.0,77,0.00,,SKC,0.14,VWS V14.01,2013-02-14 22:32:00,
2013-02-14 17:37:00,38.2,31.6,29.98,West,281,2.0,3.0,77,0.00,,SKC,0.14,VWS V14.01,2013-02-14 22:37:00,
2013-02-14 17:40:00,38.2,32.0,29.98,West,279,2.0,4.0,78,0.00,,SKC,0.14,VWS V14.01,2013-02-14 22:40:00,
2013-02-14 17:42:00,38.2,32.0,29.99,West,279,1.0,2.0,78,0.00,,SKC,0.14,VWS V14.01,2013-02-14 22:42:00,
2013-02-14 17:47:00,38.0,31.8,29.98,West,268,0.0,3.0,78,0.00,,SKC,0.14,VWS V14.01,2013-02-14 22:47:00,
2013-02-14 17:50:00,38.0,31.8,29.98,West,268,0.0,3.0,78,0.00,,SKC,0.14,VWS V14.01,2013-02-14 22:50:00,
2013-02-14 17:52:00,38.0,31.8,29.98,West,268,2.0,2.0,78,0.00,,SKC,0.14,VWS V14.01,2013-02-14 22:52:00,
2013-02-14 17:57:00,37.9,32.0,29.98,West,269,1.0,3.0,79,0.00,,SKC,0.14,VWS V14.01,2013-02-14 22:57:00,
2013-02-14 18:00:00,37.9,32.0,29.98,West,269,1.0,3.0,79,0.00,,SKC,0.14,VWS V14.01,2013-02-14 23:00:00,
2013-02-14 18:02:00,37.9,32.0,29.98,West,269,1.0,1.0,79,0.00,,SKC,0.14,VWS V14.01,2013-02-14 23:02:00,
2013-02-14 18:07:00,37.8,31.9,29.97,West,269,1.0,3.0,79,0.00,,SKC,0.14,VWS V14.01,2013-02-14 23:07:00,
2013-02-14 18:10:00,37.8,31.9,29.98,West,269,1.0,3.0,79,0.00,,SKC,0.14,VWS V14.01,2013-02-14 23:10:00,
2013-02-14 18:12:00,37.8,31.9,29.98,West,269,0.0,1.0,79,0.00,,SKC,0.14,VWS V14.01,2013-02-14 23:12:00,
2013-02-14 18:17:00,37.6,31.7,29.97,West,269,0.0,3.0,79,0.00,,SKC,0.14,VWS V14.01,2013-02-14 23:17:00,
2013-02-14 18:20:00,37.6,31.7,29.97,West,269,0.0,3.0,79,0.00,,SKC,0.14,VWS V14.01,2013-02-14 23:20:00,
2013-02-14 18:22:00,37.6,31.7,29.97,West,269,0.0,0.0,79,0.00,,SKC,0.14,VWS V14.01,2013-02-14 23:22:00,
2013-02-14 18:27:00,37.5,31.6,29.96,West,269,0.0,1.0,79,0.00,,SKC,0.14,VWS V14.01,2013-02-14 23:27:00,
2013-02-14 18:30:00,37.3,31.4,29.96,West,269,0.0,1.0,79,0.00,,SKC,0.14,VWS V14.01,2013-02-14 23:30:00,
2013-02-14 18:32:00,37.3,31.4,29.96,West,269,0.0,0.0,79,0.00,,SKC,0.14,VWS V14.01,2013-02-14 23:32:00,
2013-02-14 18:38:00,37.3,31.7,29.97,West,269,0.0,0.0,80,0.00,,SKC,0.14,VWS V14.01,2013-02-14 23:38:00,
2013-02-14 18:40:00,37.2,31.6,29.97,West,269,0.0,0.0,80,0.00,,SKC,0.14,VWS V14.01,2013-02-14 23:40:00,
2013-02-14 18:43:00,37.2,31.6,29.97,West,269,0.0,1.0,80,0.00,,SKC,0.14,VWS V14.01,2013-02-14 23:43:00,
2013-02-14 18:48:00,37.0,31.4,29.97,West,269,0.0,1.0,80,0.00,,SKC,0.14,VWS V14.01,2013-02-14 23:48:00,
2013-02-14 18:50:00,36.9,31.3,29.97,West,269,0.0,1.0,80,0.00,,SKC,0.14,VWS V14.01,2013-02-14 23:50:00,
2013-02-14 18:53:00,36.9,31.3,29.97,West,269,0.0,0.0,80,0.00,,SKC,0.14,VWS V14.01,2013-02-14 23:53:00,
2013-02-14 18:58:00,36.8,31.2,29.98,West,269,0.0,0.0,80,0.00,,SKC,0.14,VWS V14.01,2013-02-14 23:58:00,
2013-02-14 19:00:00,36.8,31.2,29.98,West,269,0.0,2.0,80,0.00,,SKC,0.14,VWS V14.01,2013-02-15 00:00:00,
2013-02-14 19:03:00,36.6,31.0,29.98,West,269,0.0,1.0,80,0.00,,SKC,0.14,VWS V14.01,2013-02-15 00:03:00,
2013-02-14 19:08:00,36.6,31.0,29.99,West,269,0.0,2.0,80,0.00,,SKC,0.14,VWS V14.01,2013-02-15 00:08:00,
2013-02-14 19:10:00,36.6,31.0,29.99,West,269,0.0,2.0,80,0.00,,SKC,0.14,VWS V14.01,2013-02-15 00:10:00,
2013-02-14 19:13:00,36.6,31.0,29.99,West,269,0.0,0.0,80,0.00,,SKC,0.14,VWS V14.01,2013-02-15 00:13:00,
2013-02-14 19:20:00,36.8,31.5,29.98,West,269,1.0,2.0,81,0.00,,SKC,0.14,VWS V14.01,2013-02-15 00:20:00,
2013-02-14 19:26:00,36.8,31.5,29.99,West,269,0.0,2.0,81,0.00,,SKC,0.14,VWS V14.01,2013-02-15 00:26:00,
2013-02-14 19:30:00,36.9,31.6,29.99,West,269,0.0,3.0,81,0.00,,SKC,0.14,VWS V14.01,2013-02-15 00:30:00,
2013-02-14 19:31:00,36.9,31.6,29.99,West,270,0.0,3.0,81,0.00,,SKC,0.14,VWS V14.01,2013-02-15 00:31:00,
2013-02-14 19:36:00,36.9,31.6,29.98,West,269,0.0,3.0,81,0.00,,SKC,0.14,VWS V14.01,2013-02-15 00:36:00,
2013-02-14 19:40:00,37.0,31.7,29.99,West,270,0.0,3.0,81,0.00,,SKC,0.14,VWS V14.01,2013-02-15 00:40:00,
2013-02-14 19:41:00,37.0,31.7,29.99,West,270,0.0,3.0,81,0.00,,SKC,0.14,VWS V14.01,2013-02-15 00:41:00,
2013-02-14 19:49:00,37.2,31.9,29.99,West,271,0.0,0.0,81,0.00,,SKC,0.14,VWS V14.01,2013-02-15 00:49:00,
2013-02-14 19:50:00,37.2,31.9,29.99,West,271,0.0,2.0,81,0.00,,SKC,0.14,VWS V14.01,2013-02-15 00:50:00,
2013-02-14 19:54:00,37.2,31.9,29.99,West,271,0.0,1.0,81,0.00,,SKC,0.14,VWS V14.01,2013-02-15 00:54:00,
2013-02-14 19:59:00,37.0,32.0,29.99,West,271,0.0,1.0,82,0.00,,SKC,0.14,VWS V14.01,2013-02-15 00:59:00,
2013-02-14 20:00:00,37.0,32.0,29.99,West,271,0.0,3.0,82,0.00,,SKC,0.14,VWS V14.01,2013-02-15 01:00:00,
2013-02-14 20:04:00,37.0,32.0,29.99,West,271,0.0,2.0,82,0.00,,SKC,0.14,VWS V14.01,2013-02-15 01:04:00,
2013-02-14 20:09:00,37.0,32.0,29.99,West,271,0.0,2.0,82,0.00,,SKC,0.14,VWS V14.01,2013-02-15 01:09:00,
2013-02-14 20:10:00,37.0,32.0,29.99,West,271,0.0,2.0,82,0.00,,SKC,0.14,VWS V14.01,2013-02-15 01:10:00,
2013-02-14 20:14:00,37.0,32.0,29.99,West,271,0.0,1.0,82,0.00,,SKC,0.14,VWS V14.01,2013-02-15 01:14:00,
2013-02-14 20:19:00,36.9,31.9,29.99,West,271,0.0,1.0,82,0.00,,SKC,0.14,VWS V14.01,2013-02-15 01:19:00,
2013-02-14 20:20:00,36.9,31.9,29.99,West,271,0.0,1.0,82,0.00,,SKC,0.14,VWS V14.01,2013-02-15 01:20:00,
2013-02-14 20:24:00,36.9,31.9,29.99,West,271,0.0,0.0,82,0.00,,SKC,0.14,VWS V14.01,2013-02-15 01:24:00,
2013-02-14 20:29:00,36.6,31.6,29.99,West,271,0.0,0.0,82,0.00,,SKC,0.14,VWS V14.01,2013-02-15 01:29:00,
2013-02-14 20:30:00,36.6,31.6,29.99,West,271,0.0,0.0,82,0.00,,SKC,0.14,VWS V14.01,2013-02-15 01:30:00,
2013-02-14 20:34:00,36.5,31.5,29.99,West,271,0.0,0.0,82,0.00,,SKC,0.14,VWS V14.01,2013-02-15 01:34:00,
2013-02-14 20:39:00,36.5,31.5,29.99,West,271,0.0,1.0,82,0.00,,SKC,0.14,VWS V14.01,2013-02-15 01:39:00,
2013-02-14 20:40:00,36.5,31.5,29.99,West,271,0.0,1.0,82,0.00,,SKC,0.14,VWS V14.01,2013-02-15 01:40:00,
2013-02-14 20:44:00,36.3,31.3,29.99,West,271,0.0,0.0,82,0.00,,SKC,0.14,VWS V14.01,2013-02-15 01:44:00,
2013-02-14 20:50:00,36.3,31.3,29.99,West,271,0.0,0.0,82,0.00,,SKC,0.14,VWS V14.01,2013-02-15 01:50:00,
2013-02-14 20:55:00,36.3,31.3,29.99,West,271,0.0,0.0,82,0.00,,SKC,0.14,VWS V14.01,2013-02-15 01:55:00,
2013-02-14 21:00:00,36.2,31.5,29.99,West,271,0.0,0.0,83,0.00,,SKC,0.14,VWS V14.01,2013-02-15 02:00:00,
2013-02-14 21:05:00,36.2,31.5,29.99,West,271,0.0,1.0,83,0.00,,SKC,0.14,VWS V14.01,2013-02-15 02:05:00,
2013-02-14 21:10:00,36.2,31.5,29.99,West,271,0.0,1.0,83,0.00,,SKC,0.14,VWS V14.01,2013-02-15 02:10:00,
2013-02-14 21:15:00,36.2,31.5,29.99,West,271,0.0,0.0,83,0.00,,SKC,0.14,VWS V14.01,2013-02-15 02:15:00,
2013-02-14 21:20:00,36.2,31.5,29.99,West,271,0.0,1.0,83,0.00,,SKC,0.14,VWS V14.01,2013-02-15 02:20:00,
2013-02-14 21:25:00,36.0,31.4,29.99,West,271,0.0,1.0,83,0.00,,SKC,0.14,VWS V14.01,2013-02-15 02:25:00,
2013-02-14 21:30:00,36.0,31.4,29.99,West,271,0.0,1.0,83,0.00,,SKC,0.14,VWS V14.01,2013-02-15 02:30:00,
2013-02-14 21:35:00,36.0,31.6,29.99,West,271,0.0,1.0,84,0.00,,SKC,0.14,VWS V14.01,2013-02-15 02:35:00,
2013-02-14 21:40:00,36.2,31.8,29.99,West,271,0.0,1.0,84,0.00,,SKC,0.14,VWS V14.01,2013-02-15 02:40:00,
2013-02-14 21:45:00,36.2,32.1,30.00,West,271,0.0,1.0,85,0.00,,SKC,0.14,VWS V14.01,2013-02-15 02:45:00,
2013-02-14 21:50:00,36.3,32.2,30.00,West,271,0.0,2.0,85,0.00,,SKC,0.14,VWS V14.01,2013-02-15 02:50:00,
2013-02-14 21:55:00,36.5,32.7,29.99,West,271,0.0,2.0,86,0.00,,SKC,0.14,VWS V14.01,2013-02-15 02:55:00,
2013-02-14 22:06:00,36.9,33.4,30.00,West,271,2.0,2.0,87,0.00,,SKC,0.14,VWS V14.01,2013-02-15 03:06:00,
2013-02-14 22:11:00,37.0,33.5,30.00,West,271,0.0,3.0,87,0.00,,SKC,0.14,VWS V14.01,2013-02-15 03:11:00,
2013-02-14 22:16:00,37.0,33.8,30.00,West,271,0.0,2.0,88,0.00,,SKC,0.14,VWS V14.01,2013-02-15 03:16:00,
2013-02-14 22:21:00,37.2,34.0,30.00,West,271,1.0,2.0,88,0.00,,SKC,0.14,VWS V14.01,2013-02-15 03:21:00,
2013-02-14 22:26:00,37.3,34.1,30.00,West,271,0.0,2.0,88,0.00,,SKC,0.14,VWS V14.01,2013-02-15 03:26:00,
2013-02-14 22:31:00,37.3,34.1,29.99,West,271,0.0,2.0,88,0.00,,SKC,0.14,VWS V14.01,2013-02-15 03:31:00,
2013-02-14 22:36:00,37.3,34.1,29.99,West,271,0.0,1.0,88,0.00,,SKC,0.14,VWS V14.01,2013-02-15 03:36:00,
2013-02-14 22:42:00,37.5,34.6,29.99,West,271,0.0,0.0,89,0.00,,SKC,0.14,VWS V14.01,2013-02-15 03:42:00,
2013-02-14 22:47:00,37.5,34.6,29.99,West,271,0.0,3.0,89,0.00,,SKC,0.14,VWS V14.01,2013-02-15 03:47:00,
2013-02-14 22:52:00,37.6,34.7,29.99,West,271,0.0,0.0,89,0.00,,SKC,0.14,VWS V14.01,2013-02-15 03:52:00,